Darya Jyoti — VRGM9 — position and weather

sailwx.info

Track history (hours):
 
Tides and Currents Weather Stations Pressure Air Temp Water Temp Dewpoint Dewpoint Depression Visibility Wind Speed Wind Dir Waves Ship Positions

Darya Jyoti

Last reported at 2016-Apr-28 04:28 UTC. Time now 2016-Apr-30 03:24 UTC.
Position N 38°55' E 122°00'.

Length 229 m; draft 12.7 m.

Type: Cargo ship. MMSI: 477742700.

Date/timePositionNaut miles runAvg speedWind from/ knotsBaromVisibWave heightAir tempDewpointWater temp
2016-Apr-28 04:28N 38°55' E 122°00'0 0.3
2016-Apr-28 03:33N 38°55' E 122°01'1 0.2
2016-Apr-28 00:31N 38°55' E 122°01'5 5.5
2016-Apr-27 23:33N 38°49' E 122°03'8 8.2
2016-Apr-27 22:33N 38°41' E 122°06'6 6.2
2016-Apr-27 21:34N 38°36' E 122°09'7 6.6
2016-Apr-27 20:33N 38°31' E 122°15'8 7.5
2016-Apr-27 19:33N 38°25' E 122°21'1111.0
2016-Apr-27 18:31N 38°17' E 122°31'2511.2
2016-Apr-27 16:16N 37°58' E 122°52'811.8
2016-Apr-27 15:34N 37°51' E 122°59'  
2016-Apr-18 15:27N 01°16' E 104°11'8 9.0
2016-Apr-18 14:32N 01°15' E 104°03'4 4.2
2016-Apr-18 13:33N 01°17' E 103°59'0 0.0
2016-Apr-18 12:32N 01°17' E 103°59'0 0.0
2016-Apr-18 11:26N 01°17' E 103°59'0 0.0
2016-Apr-18 10:23N 01°17' E 103°59'0 0.0
2016-Apr-18 09:32N 01°17' E 103°59'0 0.1
2016-Apr-18 08:17N 01°17' E 103°59'0 0.1
2016-Apr-18 07:23N 01°17' E 103°59'0 0.1
2016-Apr-18 06:14N 01°17' E 103°59'0 0.0
2016-Apr-18 05:33N 01°17' E 103°59'0 0.1
2016-Apr-18 04:33N 01°17' E 103°59'  
Track history (hours):
 
Tides and Currents Weather Stations Pressure Air Temp Water Temp Dewpoint Dewpoint Depression Visibility Wind Speed Wind Dir Waves Ship Positions

Darya Jyoti

Last reported at 2016-Apr-28 04:28 UTC. Time now 2016-Apr-30 03:24 UTC.
Position N 38°55' E 122°00'.

Length 229 m; draft 12.7 m.

Type: Cargo ship. MMSI: 477742700.

Date/timePositionNaut miles runAvg speedWind from/ knotsBaromVisibWave heightAir tempDewpointWater temp
2016-Apr-28 04:28N 38°55' E 122°00'0 0.3
2016-Apr-28 03:33N 38°55' E 122°01'1 0.2
2016-Apr-28 00:31N 38°55' E 122°01'5 5.5
2016-Apr-27 23:33N 38°49' E 122°03'8 8.2
2016-Apr-27 22:33N 38°41' E 122°06'6 6.2
2016-Apr-27 21:34N 38°36' E 122°09'7 6.6
2016-Apr-27 20:33N 38°31' E 122°15'8 7.5
2016-Apr-27 19:33N 38°25' E 122°21'1111.0
2016-Apr-27 18:31N 38°17' E 122°31'2511.2
2016-Apr-27 16:16N 37°58' E 122°52'811.8
2016-Apr-27 15:34N 37°51' E 122°59'  
2016-Apr-18 15:27N 01°16' E 104°11'8 9.0
2016-Apr-18 14:32N 01°15' E 104°03'4 4.2
2016-Apr-18 13:33N 01°17' E 103°59'0 0.0
2016-Apr-18 12:32N 01°17' E 103°59'0 0.0
2016-Apr-18 11:26N 01°17' E 103°59'0 0.0
2016-Apr-18 10:23N 01°17' E 103°59'0 0.0
2016-Apr-18 09:32N 01°17' E 103°59'0 0.1
2016-Apr-18 08:17N 01°17' E 103°59'0 0.1
2016-Apr-18 07:23N 01°17' E 103°59'0 0.1
2016-Apr-18 06:14N 01°17' E 103°59'0 0.0
2016-Apr-18 05:33N 01°17' E 103°59'0 0.1
2016-Apr-18 04:33N 01°17' E 103°59'  

Dump ship's entire track history